Time;durP1;ratioP1;P1;durP2;ratioP2;P2;SDS_P1;SDS_P2;PMS_P1;PMS_P2;Temp;Humidity;BMP_temperature;BMP_pressure;BME280_temperature;BME280_humidity;BME280_pressure;Samples;Min_cycle;Max_cycle;Signal;HPM_P1;HPM_P2
2023/08/19 00:00:28;;;;;;;;;;;;;;;28.70;34.77;96816.63;4218652;28;5826;-75
2023/08/19 00:02:51;;;;;;;;;;;;;;;28.70;34.72;96816.63;4217612;28;5668;-75
2023/08/19 00:05:14;;;;;;;;;;;;;;;28.69;34.76;96818.53;4217712;28;5783;-75
2023/08/19 00:07:37;;;;;;;;;;;;;;;28.68;34.62;96827.03;4216283;28;5070;-75
2023/08/19 00:10:03;;;;;;;;;;;;;;;28.67;34.69;96817.25;4217266;28;5835;-75
2023/08/19 00:12:07;;;;;;;;;;;;;;;28.67;34.75;96825.41;4217971;28;5801;-75
2023/08/19 00:14:11;;;;;;;;;;;;;;;28.65;34.70;96827.59;4214398;28;5673;-75
2023/08/19 00:16:13;;;;;;;;;;;;;;;28.65;34.67;96825.72;4217993;28;7038;-75
2023/08/19 00:18:16;;;;;;;;;;;;;;;28.65;34.80;96825.72;4218087;28;5771;-75
2023/08/19 00:20:19;;;;;;;;;;;;;;;28.64;34.70;96826.00;4215046;28;5668;-75
2023/08/19 00:22:22;;;;;;;;;;;;;;;28.62;34.68;96828.22;4208523;28;5728;-75
2023/08/19 00:24:25;;;;;;;;;;;;;;;28.61;34.59;96832.88;4218533;28;5670;-75
2023/08/19 00:26:29;;;;;;;;;;;;;;;28.59;34.74;96826.94;4215746;28;5717;-75
2023/08/19 00:28:32;;;;;;;;;;;;;;;28.60;34.92;96822.31;4213617;28;5751;-75
2023/08/19 00:30:37;;;;;;;;;;;;;;;28.60;34.71;96825.03;4218725;28;5771;-75
2023/08/19 00:32:40;;;;;;;;;;;;;;;28.60;34.78;96835.91;4218624;28;5684;-77
2023/08/19 00:34:43;;;;;;;;;;;;;;;28.61;34.99;96834.78;4218713;28;5685;-75
2023/08/19 00:36:46;;;;;;;;;;;;;;;28.61;34.91;96837.50;4218421;28;5692;-76
2023/08/19 00:38:51;;;;;;;;;;;;;;;28.59;34.86;96837.03;4218249;28;5672;-76
2023/08/19 00:40:53;;;;;;;;;;;;;;;28.58;34.90;96840.84;4217922;28;5664;-77
2023/08/19 00:42:56;;;;;;;;;;;;;;;28.58;34.96;96838.13;4217989;28;5679;-78
2023/08/19 00:44:59;;;;;;;;;;;;;;;28.57;34.95;96841.97;4218410;28;5101;-78
2023/08/19 00:47:04;;;;;;;;;;;;;;;28.57;35.04;96839.25;4218152;28;5665;-78
2023/08/19 00:49:08;;;;;;;;;;;;;;;28.56;34.81;96840.38;4218232;28;6474;-76
2023/08/19 00:51:11;;;;;;;;;;;;;;;28.55;34.79;96838.75;4210204;28;5675;-76
2023/08/19 00:53:15;;;;;;;;;;;;;;;28.53;34.89;96840.97;4218196;28;5823;-77
2023/08/19 00:55:18;;;;;;;;;;;;;;;28.52;34.95;96842.88;4217842;28;5668;-78
2023/08/19 00:57:22;;;;;;;;;;;;;;;28.53;34.97;96835.50;4218118;28;5704;-77
2023/08/19 00:59:26;;;;;;;;;;;;;;;28.52;34.85;96839.34;4217987;28;5692;-78
2023/08/19 01:01:29;;;;;;;;;;;;;;;28.51;34.90;96843.19;4218144;28;5759;-77
2023/08/19 01:03:33;;;;;;;;;;;;;;;28.51;34.91;96846.72;4217883;28;5652;-77
2023/08/19 01:05:50;;;;;;;;;;;;;;;28.50;35.01;96841.56;4219663;28;5759;-76
2023/08/19 01:07:56;;;;;;;;;;;;;;;28.48;34.72;96844.59;4219254;28;5692;-79
2023/08/19 01:10:04;;;;;;;;;;;;;;;28.45;34.88;96833.56;4221135;28;5696;-78
2023/08/19 01:12:15;;;;;;;;;;;;;;;28.39;34.90;96836.38;4221454;28;6377;-76
2023/08/19 01:14:34;;;;;;;;;;;;;;;28.39;35.03;96827.41;4221268;28;5672;-77
2023/08/19 01:16:40;;;;;;;;;;;;;;;28.39;35.02;96830.94;4221234;28;6352;-76
2023/08/19 01:18:45;;;;;;;;;;;;;;;28.38;35.02;96837.47;4221446;28;5755;-77
2023/08/19 01:20:50;;;;;;;;;;;;;;;28.39;35.06;96830.13;4221208;28;5872;-77
2023/08/19 01:22:57;;;;;;;;;;;;;;;28.38;34.92;96829.31;4220831;28;5799;-77
2023/08/19 01:25:02;;;;;;;;;;;;;;;28.38;35.03;96829.31;4221058;28;5100;-77
2023/08/19 01:27:06;;;;;;;;;;;;;;;28.38;35.05;96834.75;4221222;28;5764;-78
2023/08/19 01:29:09;;;;;;;;;;;;;;;28.38;35.04;96834.75;4212651;28;5659;-77
2023/08/19 01:31:12;;;;;;;;;;;;;;;28.37;34.93;96835.88;4221103;28;5691;-76
2023/08/19 01:33:15;;;;;;;;;;;;;;;28.36;35.20;96837.00;4220453;28;5672;-77
2023/08/19 01:35:19;;;;;;;;;;;;;;;28.37;35.14;96837.78;4221139;28;5838;-77
2023/08/19 01:37:30;;;;;;;;;;;;;;;28.36;35.11;96842.44;4220843;28;5672;-76
2023/08/19 01:39:35;;;;;;;;;;;;;;;28.35;35.11;96845.47;4220907;28;5672;-77
2023/08/19 01:41:41;;;;;;;;;;;;;;;28.33;35.07;96843.03;4220623;28;5669;-78
2023/08/19 01:43:45;;;;;;;;;;;;;;;28.32;35.27;96836.00;4220800;28;5676;-78
2023/08/19 01:45:48;;;;;;;;;;;;;;;28.30;35.24;96842.84;4221202;28;6063;-76
2023/08/19 01:47:53;;;;;;;;;;;;;;;28.29;35.31;96841.22;4220487;28;5687;-75
2023/08/19 01:49:57;;;;;;;;;;;;;;;28.30;35.29;96837.41;4220621;28;5818;-75
2023/08/19 01:52:01;;;;;;;;;;;;;;;28.29;35.55;96847.47;4220390;28;7793;-76
2023/08/19 01:54:04;;;;;;;;;;;;;;;28.29;35.47;96835.78;4220943;28;6481;-77
2023/08/19 01:56:07;;;;;;;;;;;;;;;28.29;35.47;96841.22;4220290;28;5747;-76
2023/08/19 01:58:11;;;;;;;;;;;;;;;28.29;35.51;96846.66;4217047;28;5810;-74
2023/08/19 02:00:14;;;;;;;;;;;;;;;28.27;35.57;96846.97;4214741;28;5766;-75
2023/08/19 02:02:16;;;;;;;;;;;;;;;28.27;35.50;96846.13;4207366;28;5094;-77
2023/08/19 02:04:19;;;;;;;;;;;;;;;28.27;35.52;96846.97;4208034;28;5775;-77
2023/08/19 02:06:22;;;;;;;;;;;;;;;28.26;35.63;96847.25;4205952;28;5748;-75
2023/08/19 02:08:25;;;;;;;;;;;;;;;28.23;35.53;96843.25;4205817;28;5775;-77
2023/08/19 02:10:28;;;;;;;;;;;;;;;28.24;35.49;96849.47;4208317;28;5914;-76
2023/08/19 02:12:31;;;;;;;;;;;;;;;28.24;35.39;96849.47;4208596;28;5669;-75
2023/08/19 02:14:35;;;;;;;;;;;;;;;28.23;35.70;96854.09;4207025;28;5755;-76
2023/08/19 02:16:38;;;;;;;;;;;;;;;28.22;35.37;96857.94;4201423;28;6532;-76
2023/08/19 02:18:40;;;;;;;;;;;;;;;28.20;35.54;96862.06;4219368;28;5676;-75
2023/08/19 02:20:46;;;;;;;;;;;;;;;28.18;35.62;96862.34;4220005;28;5768;-75
2023/08/19 02:22:49;;;;;;;;;;;;;;;28.18;35.42;96861.56;4220264;28;5783;-75
2023/08/19 02:24:51;;;;;;;;;;;;;;;28.17;35.64;96860.75;4220138;28;5692;-75
2023/08/19 02:26:54;;;;;;;;;;;;;;;28.16;35.79;96861.06;4220005;28;5774;-75
2023/08/19 02:28:57;;;;;;;;;;;;;;;28.14;35.52;96861.38;4220103;28;5716;-75
2023/08/19 02:31:04;;;;;;;;;;;;;;;28.14;35.55;96864.09;4218891;28;5722;-75
2023/08/19 02:33:08;;;;;;;;;;;;;;;28.12;35.60;96869.81;4220026;28;5695;-75
2023/08/19 02:35:11;;;;;;;;;;;;;;;28.13;35.35;96876.06;4212167;28;5775;-76
2023/08/19 02:37:14;;;;;;;;;;;;;;;28.11;35.70;96862.78;4219696;28;5656;-76
2023/08/19 02:39:17;;;;;;;;;;;;;;;28.10;35.67;96865.81;4220049;28;5669;-76
2023/08/19 02:41:19;;;;;;;;;;;;;;;28.10;35.63;96861.19;4219769;28;5661;-76
2023/08/19 02:43:21;;;;;;;;;;;;;;;28.11;35.59;96859.25;4219654;28;5743;-76
2023/08/19 02:45:25;;;;;;;;;;;;;;;28.10;35.64;96858.47;4219797;28;6377;-76
2023/08/19 02:47:29;;;;;;;;;;;;;;;28.09;35.50;96856.06;4219931;28;5887;-76
2023/08/19 02:49:32;;;;;;;;;;;;;;;28.08;35.62;96857.13;4220254;28;5679;-76
2023/08/19 02:51:35;;;;;;;;;;;;;;;28.07;35.59;96858.25;4220214;28;5763;-76
2023/08/19 02:53:38;;;;;;;;;;;;;;;28.06;35.63;96851.19;4219419;28;5671;-75
2023/08/19 02:55:41;;;;;;;;;;;;;;;28.06;35.66;96853.91;4219475;28;5657;-75
2023/08/19 02:57:45;;;;;;;;;;;;;;;28.05;35.58;96863.19;4219453;28;5756;-75
2023/08/19 02:59:47;;;;;;;;;;;;;;;28.05;35.69;96855.03;4219624;28;5665;-76
2023/08/19 03:01:50;;;;;;;;;;;;;;;28.06;35.49;96856.63;4219685;28;5763;-76
2023/08/19 03:03:54;;;;;;;;;;;;;;;28.05;35.73;96857.75;4219654;28;5772;-76
2023/08/19 03:06:03;;;;;;;;;;;;;;;28.06;35.74;96864.78;4219345;28;5911;-75
2023/08/19 03:08:06;;;;;;;;;;;;;;;28.06;35.74;96860.16;4219314;28;7249;-75
2023/08/19 03:10:08;;;;;;;;;;;;;;;28.06;35.89;96854.72;4219444;28;5772;-75
2023/08/19 03:12:11;;;;;;;;;;;;;;;28.04;35.88;96865.09;4219426;28;5660;-75
2023/08/19 03:14:14;;;;;;;;;;;;;;;28.04;35.82;96858.84;4219426;28;6687;-75
2023/08/19 03:16:17;;;;;;;;;;;;;;;28.05;35.86;96865.91;4219321;28;5851;-75
2023/08/19 03:18:20;;;;;;;;;;;;;;;28.04;35.87;96853.44;4219124;28;5673;-75
2023/08/19 03:20:25;;;;;;;;;;;;;;;28.04;36.08;96856.16;4219629;28;5693;-75
2023/08/19 03:22:28;;;;;;;;;;;;;;;28.03;35.90;96854.53;4219219;28;5890;-75
2023/08/19 03:24:30;;;;;;;;;;;;;;;28.03;35.95;96866.22;4219269;28;5677;-75
2023/08/19 03:26:33;;;;;;;;;;;;;;;28.01;35.99;96854.84;4219084;28;5684;-75
2023/08/19 03:28:36;;;;;;;;;;;;;;;28.02;36.06;96858.38;4218444;28;5660;-75
2023/08/19 03:30:39;;;;;;;;;;;;;;;28.02;35.81;96863.81;4219111;28;5681;-76
2023/08/19 03:32:42;;;;;;;;;;;;;;;28.02;35.84;96871.94;4218808;28;5780;-75
2023/08/19 03:34:45;;;;;;;;;;;;;;;28.01;36.01;96868.44;4218930;28;6585;-75
2023/08/19 03:36:49;;;;;;;;;;;;;;;28.02;35.95;96871.94;4219027;28;5672;-75
2023/08/19 03:38:52;;;;;;;;;;;;;;;28.01;35.97;96881.22;4219192;28;5676;-75
2023/08/19 03:40:55;;;;;;;;;;;;;;;28.02;36.01;96871.94;4218836;28;5782;-75
2023/08/19 03:42:58;;;;;;;;;;;;;;;28.02;36.02;96874.66;4219157;28;5660;-75
2023/08/19 03:45:01;;;;;;;;;;;;;;;28.01;36.15;96881.22;4218765;28;5692;-75
2023/08/19 03:47:03;;;;;;;;;;;;;;;27.99;36.03;96881.53;4219122;28;5680;-75
2023/08/19 03:49:06;;;;;;;;;;;;;;;27.99;35.96;96876.09;4218829;28;5681;-76
2023/08/19 03:51:09;;;;;;;;;;;;;;;27.98;36.14;96879.91;4202551;28;5697;-75
2023/08/19 03:53:14;;;;;;;;;;;;;;;27.98;36.10;96884.53;4218758;28;5801;-75
2023/08/19 03:55:17;;;;;;;;;;;;;;;27.97;36.14;96883.72;4218590;28;5689;-74
2023/08/19 03:57:19;;;;;;;;;;;;;;;27.96;36.25;96879.38;4219011;28;5942;-75
2023/08/19 03:59:22;;;;;;;;;;;;;;;27.94;36.26;96888.94;4218638;28;6377;-75
2023/08/19 04:01:25;;;;;;;;;;;;;;;27.93;36.22;96890.88;4218528;28;5657;-75
2023/08/19 04:03:28;;;;;;;;;;;;;;;27.92;36.18;96893.88;4218612;28;5870;-74
2023/08/19 04:05:31;;;;;;;;;;;;;;;27.92;36.37;96897.41;4218379;28;5759;-75
2023/08/19 04:07:34;;;;;;;;;;;;;;;27.93;36.47;96901.72;4218785;28;5676;-75
2023/08/19 04:09:37;;;;;;;;;;;;;;;27.94;36.41;96894.38;4218832;28;5712;-75
2023/08/19 04:11:40;;;;;;;;;;;;;;;27.92;36.44;96894.69;4218242;28;5672;-74
2023/08/19 04:13:43;;;;;;;;;;;;;;;27.92;36.57;96902.03;4216877;28;5701;-75
2023/08/19 04:15:46;;;;;;;;;;;;;;;27.92;36.43;96904.75;4217628;28;5760;-75
2023/08/19 04:18:10;;;;;;;;;;;;;;;27.91;36.51;96906.66;4209668;28;5665;-75
2023/08/19 04:20:14;;;;;;;;;;;;;;;27.91;36.56;96901.25;4218634;28;5751;-75
2023/08/19 04:22:16;;;;;;;;;;;;;;;27.90;36.55;96898.81;4217043;28;5724;-75
2023/08/19 04:24:19;;;;;;;;;;;;;;;27.90;36.56;96905.06;4218554;28;5788;-75
2023/08/19 04:26:23;;;;;;;;;;;;;;;27.89;36.71;96906.16;4218585;28;5697;-75
2023/08/19 04:28:26;;;;;;;;;;;;;;;27.87;36.75;96904.88;4218349;28;5496;-75
2023/08/19 04:30:29;;;;;;;;;;;;;;;27.85;36.61;96902.44;4216782;28;5624;-75
2023/08/19 04:32:32;;;;;;;;;;;;;;;27.85;36.72;96911.38;4218278;28;5712;-74
2023/08/19 04:34:35;;;;;;;;;;;;;;;27.85;36.74;96908.66;4218120;28;7375;-75
2023/08/19 04:36:37;;;;;;;;;;;;;;;27.85;36.80;96914.09;4218458;28;5664;-75
2023/08/19 04:38:40;;;;;;;;;;;;;;;27.84;36.84;96906.25;4218345;28;5681;-75
2023/08/19 04:40:44;;;;;;;;;;;;;;;27.84;36.95;96908.97;4221273;28;5680;-75
2023/08/19 04:42:49;;;;;;;;;;;;;;;27.84;36.82;96911.69;4221736;28;5783;-75
2023/08/19 04:44:52;;;;;;;;;;;;;;;27.83;36.83;96913.59;4221804;28;5783;-75
2023/08/19 04:46:54;;;;;;;;;;;;;;;27.84;37.02;96914.41;4221834;28;5676;-75
2023/08/19 04:48:57;;;;;;;;;;;;;;;27.84;37.09;96920.63;4221717;28;5784;-75
2023/08/19 04:51:01;;;;;;;;;;;;;;;27.85;37.03;96921.44;4221573;28;5788;-75
2023/08/19 04:53:04;;;;;;;;;;;;;;;27.86;37.06;96928.47;4221270;28;5669;-75
2023/08/19 04:55:07;;;;;;;;;;;;;;;27.84;37.38;96922.56;4221614;28;5807;-74
2023/08/19 04:57:10;;;;;;;;;;;;;;;27.87;37.43;96923.88;4220873;28;5692;-75
2023/08/19 04:59:14;;;;;;;;;;;;;;;27.88;37.50;96928.22;4221494;28;6478;-75
2023/08/19 05:01:17;;;;;;;;;;;;;;;27.89;37.92;96925.19;4221602;28;5665;-75
2023/08/19 05:03:19;;;;;;;;;;;;;;;27.90;38.04;96926.00;4221474;28;5691;-75
2023/08/19 05:05:22;;;;;;;;;;;;;;;27.91;38.26;96927.59;4221482;28;5742;-75
2023/08/19 05:07:24;;;;;;;;;;;;;;;27.91;38.30;96933.84;4221585;28;5743;-75
2023/08/19 05:09:27;;;;;;;;;;;;;;;27.91;38.59;96931.13;4221561;28;5795;-75
2023/08/19 05:11:30;;;;;;;;;;;;;;;27.92;38.72;96938.16;4221183;28;5881;-75
2023/08/19 05:13:33;;;;;;;;;;;;;;;27.93;39.07;96955.28;4221458;28;5660;-75
2023/08/19 05:15:38;;;;;;;;;;;;;;;27.94;39.28;96952.25;4221154;28;5793;-75
2023/08/19 05:17:41;;;;;;;;;;;;;;;27.95;39.66;96961.19;4221772;28;5665;-75
2023/08/19 05:19:44;;;;;;;;;;;;;;;27.96;39.80;96960.09;4221124;28;5743;-75
2023/08/19 05:21:48;;;;;;;;;;;;;;;27.96;39.87;96962.81;4221419;28;5752;-75
2023/08/19 05:23:51;;;;;;;;;;;;;;;27.97;40.15;96957.06;4220961;28;5117;-75
2023/08/19 05:25:54;;;;;;;;;;;;;;;27.99;40.23;96964.94;4220849;28;6349;-75
2023/08/19 05:27:57;;;;;;;;;;;;;;;27.98;40.25;96969.56;4221068;28;5770;-74
2023/08/19 05:30:00;;;;;;;;;;;;;;;27.97;40.34;96970.66;4220826;28;5720;-74
2023/08/19 05:32:05;;;;;;;;;;;;;;;27.98;40.22;96968.78;4221126;28;7775;-74
2023/08/19 05:34:09;;;;;;;;;;;;;;;27.98;40.22;96971.50;4220725;28;5811;-74
2023/08/19 05:36:11;;;;;;;;;;;;;;;27.99;40.26;96976.63;4221174;28;6476;-74
2023/08/19 05:38:14;;;;;;;;;;;;;;;28.00;40.25;96975.50;4220883;28;5681;-74
2023/08/19 05:40:17;;;;;;;;;;;;;;;28.01;40.24;96976.31;4220602;28;5673;-74
2023/08/19 05:42:20;;;;;;;;;;;;;;;28.03;40.10;96979.53;4220934;28;5677;-74
2023/08/19 05:44:23;;;;;;;;;;;;;;;28.04;39.90;96975.72;4221206;28;5762;-74
2023/08/19 05:46:26;;;;;;;;;;;;;;;28.04;40.14;96979.22;4220617;28;5668;-74
2023/08/19 05:48:31;;;;;;;;;;;;;;;28.06;39.95;96982.44;4220702;28;5771;-75
2023/08/19 05:50:35;;;;;;;;;;;;;;;28.06;39.85;96976.22;4220032;28;5834;-74
2023/08/19 05:52:38;;;;;;;;;;;;;;;28.07;39.93;96985.97;4220529;28;5685;-74
2023/08/19 05:54:41;;;;;;;;;;;;;;;28.07;40.10;96994.13;4220153;28;5676;-74
2023/08/19 05:56:44;;;;;;;;;;;;;;;28.08;40.02;96984.84;4220441;28;5815;-74
2023/08/19 05:58:47;;;;;;;;;;;;;;;28.09;39.95;96989.22;4220609;28;5664;-74
2023/08/19 06:00:57;;;;;;;;;;;;;;;28.08;40.11;96979.41;4220626;28;5776;-75
2023/08/19 06:03:00;;;;;;;;;;;;;;;28.08;39.91;96984.84;4220523;28;5760;-75
2023/08/19 06:05:05;;;;;;;;;;;;;;;28.08;40.15;96988.38;4220077;28;5669;-74
2023/08/19 06:07:08;;;;;;;;;;;;;;;28.11;40.04;96990.53;4220613;28;5664;-74
2023/08/19 06:09:11;;;;;;;;;;;;;;;28.14;40.14;96991.81;4212068;28;5673;-74
2023/08/19 06:11:13;;;;;;;;;;;;;;;28.18;40.18;96992.81;4220288;28;5787;-74
2023/08/19 06:13:16;;;;;;;;;;;;;;;28.23;40.47;96984.59;4220554;28;5693;-74
2023/08/19 06:15:19;;;;;;;;;;;;;;;28.27;40.52;96991.03;4220456;28;5669;-74
2023/08/19 06:17:22;;;;;;;;;;;;;;;28.30;40.71;96990.44;4220425;28;5676;-74
2023/08/19 06:19:25;;;;;;;;;;;;;;;28.31;40.70;96992.03;4220562;28;5860;-74
2023/08/19 06:21:29;;;;;;;;;;;;;;;28.31;41.01;96994.75;4220354;28;6596;-75
2023/08/19 06:23:32;;;;;;;;;;;;;;;28.34;40.76;96996.91;4220484;28;5669;-74
2023/08/19 06:25:35;;;;;;;;;;;;;;;28.35;41.11;97003.13;4219936;28;5760;-74
2023/08/19 06:27:38;;;;;;;;;;;;;;;28.37;41.27;97003.63;4219981;28;6130;-74
2023/08/19 06:29:41;;;;;;;;;;;;;;;28.34;41.36;97005.06;4220385;28;5665;-74
2023/08/19 06:31:45;;;;;;;;;;;;;;;28.34;41.46;97007.78;4220610;28;5791;-75
2023/08/19 06:33:48;;;;;;;;;;;;;;;28.35;41.40;97014.81;4219919;28;5074;-74
2023/08/19 06:35:53;;;;;;;;;;;;;;;28.35;41.55;97009.38;4220519;28;6381;-74
2023/08/19 06:38:00;;;;;;;;;;;;;;;28.36;41.74;97011.00;4220397;28;5914;-75
2023/08/19 06:40:07;;;;;;;;;;;;;;;28.35;41.96;97009.38;4219756;28;5672;-73
2023/08/19 06:42:11;;;;;;;;;;;;;;;28.35;42.05;97014.81;4220428;28;5827;-74
2023/08/19 06:44:15;;;;;;;;;;;;;;;28.39;42.28;97021.25;4219959;28;5684;-73
2023/08/19 06:46:18;;;;;;;;;;;;;;;28.42;42.36;97031.50;4220045;28;5669;-74
2023/08/19 06:48:23;;;;;;;;;;;;;;;28.47;42.18;97024.38;4219939;28;5136;-74
2023/08/19 06:50:27;;;;;;;;;;;;;;;28.50;42.38;97023.78;4220290;28;5684;-75
2023/08/19 06:52:30;;;;;;;;;;;;;;;28.51;42.21;97019.94;4219851;28;5774;-75
2023/08/19 06:54:35;;;;;;;;;;;;;;;28.55;42.61;97029.13;4219822;28;5688;-75
2023/08/19 06:56:46;;;;;;;;;;;;;;;28.60;42.63;97031.72;4219610;28;5715;-75
2023/08/19 06:58:52;;;;;;;;;;;;;;;28.60;42.47;97037.97;4219633;28;5676;-74
2023/08/19 07:01:03;;;;;;;;;;;;;;;28.64;42.36;97038.97;4219714;28;5665;-74
2023/08/19 07:03:07;;;;;;;;;;;;;;;28.68;42.37;97031.81;4217492;28;5669;-75
2023/08/19 07:05:14;;;;;;;;;;;;;;;28.70;42.32;97031.53;4209873;28;5731;-73
2023/08/19 07:07:21;;;;;;;;;;;;;;;28.74;42.32;97034.44;4219660;28;5924;-73
2023/08/19 07:09:25;;;;;;;;;;;;;;;28.78;42.08;97044.41;4219445;28;5668;-73
2023/08/19 07:11:30;;;;;;;;;;;;;;;28.79;42.07;97040.59;4219533;28;5763;-73
2023/08/19 07:13:33;;;;;;;;;;;;;;;28.78;41.92;97032.72;4219395;28;7723;-74
2023/08/19 07:15:36;;;;;;;;;;;;;;;28.81;41.85;97043.00;4219649;28;5680;-74
2023/08/19 07:17:43;;;;;;;;;;;;;;;28.80;41.63;97042.19;4219318;28;5671;-74
2023/08/19 07:19:47;;;;;;;;;;;;;;;28.79;41.71;97051.47;4219424;28;5841;-74
2023/08/19 07:21:51;;;;;;;;;;;;;;;28.79;41.64;97053.38;4219094;28;5887;-74
2023/08/19 07:23:59;;;;;;;;;;;;;;;28.76;41.34;97051.25;4219294;28;5865;-74
2023/08/19 07:26:03;;;;;;;;;;;;;;;28.75;41.27;97053.16;4219062;28;5740;-74
2023/08/19 07:28:09;;;;;;;;;;;;;;;28.76;41.31;97051.25;4218863;28;5705;-74
2023/08/19 07:30:14;;;;;;;;;;;;;;;28.77;41.17;97045.53;4202952;28;5705;-74
2023/08/19 07:32:18;;;;;;;;;;;;;;;28.78;41.16;97047.13;4218970;28;5685;-74
2023/08/19 07:34:21;;;;;;;;;;;;;;;28.80;41.07;97046.81;4218876;28;5677;-75
2023/08/19 07:36:25;;;;;;;;;;;;;;;28.80;41.19;97052.28;4219154;28;6351;-74
2023/08/19 07:38:28;;;;;;;;;;;;;;;28.81;41.14;97054.69;4219222;28;5691;-74
2023/08/19 07:40:30;;;;;;;;;;;;;;;28.79;41.03;97051.47;4217328;28;5640;-73
2023/08/19 07:42:33;;;;;;;;;;;;;;;28.73;41.01;97049.94;4218839;28;5661;-74
2023/08/19 07:44:38;;;;;;;;;;;;;;;28.68;41.28;97050.88;4218967;28;5752;-74
2023/08/19 07:46:41;;;;;;;;;;;;;;;28.68;41.05;97055.50;4219057;28;5668;-74
2023/08/19 07:48:44;;;;;;;;;;;;;;;28.66;41.02;97060.44;4218940;28;5834;-74
2023/08/19 07:50:47;;;;;;;;;;;;;;;28.65;41.03;97066.97;4219075;28;5660;-74
2023/08/19 07:52:49;;;;;;;;;;;;;;;28.63;41.09;97059.13;4218256;28;5829;-74
2023/08/19 07:54:52;;;;;;;;;;;;;;;28.64;41.08;97055.28;4218750;28;5660;-74
2023/08/19 07:56:57;;;;;;;;;;;;;;;28.67;41.23;97062.06;4218503;28;5859;-73
2023/08/19 07:59:00;;;;;;;;;;;;;;;28.70;41.24;97064.16;4219028;28;5760;-75
2023/08/19 08:01:05;;;;;;;;;;;;;;;28.71;41.16;97065.78;4218508;28;5680;-74
2023/08/19 08:03:08;;;;;;;;;;;;;;;28.74;41.19;97069.78;4218863;28;5792;-74
2023/08/19 08:05:11;;;;;;;;;;;;;;;28.77;41.36;97074.63;4210390;28;5846;-74
2023/08/19 08:07:14;;;;;;;;;;;;;;;28.75;41.16;97066.75;4218476;28;5668;-74
2023/08/19 08:09:17;;;;;;;;;;;;;;;28.76;41.27;97067.56;4218183;28;5667;-73
2023/08/19 08:11:20;;;;;;;;;;;;;;;28.78;41.28;97066.19;4218099;28;5664;-75
2023/08/19 08:13:26;;;;;;;;;;;;;;;28.80;41.31;97074.84;4218496;28;5656;-75
2023/08/19 08:15:30;;;;;;;;;;;;;;;28.82;41.58;97069.91;4218491;28;5692;-74
2023/08/19 08:17:35;;;;;;;;;;;;;;;28.83;41.30;97063.34;4218662;28;5668;-75
2023/08/19 08:19:39;;;;;;;;;;;;;;;28.85;41.20;97066.56;4218109;28;5680;-73
2023/08/19 08:21:42;;;;;;;;;;;;;;;28.87;41.17;97066.25;4218261;28;5664;-74
2023/08/19 08:23:44;;;;;;;;;;;;;;;28.85;41.08;97058.41;4216029;28;5692;-74
2023/08/19 08:25:48;;;;;;;;;;;;;;;28.84;40.71;97058.69;4201444;28;5685;-74
2023/08/19 08:27:50;;;;;;;;;;;;;;;28.84;40.98;97069.59;4201437;28;5697;-74
2023/08/19 08:29:53;;;;;;;;;;;;;;;28.82;41.01;97067.16;4201266;28;5713;-74
2023/08/19 08:31:56;;;;;;;;;;;;;;;28.81;40.95;97081.09;4201136;28;7309;-74
2023/08/19 08:34:00;;;;;;;;;;;;;;;28.78;41.09;97071.63;4201262;28;5859;-74
2023/08/19 08:36:05;;;;;;;;;;;;;;;28.79;40.86;97075.94;4201427;28;5690;-75
2023/08/19 08:38:08;;;;;;;;;;;;;;;28.79;40.86;97075.94;4201451;28;5691;-74
2023/08/19 08:40:11;;;;;;;;;;;;;;;28.80;40.70;97074.84;4201060;28;5816;-75
2023/08/19 08:42:15;;;;;;;;;;;;;;;28.79;40.64;97073.22;4201223;28;7713;-74
2023/08/19 08:44:20;;;;;;;;;;;;;;;28.80;40.68;97076.75;4201371;28;5690;-74
2023/08/19 08:46:26;;;;;;;;;;;;;;;28.78;40.72;97076.25;4201664;28;5674;-74
2023/08/19 08:48:30;;;;;;;;;;;;;;;28.77;40.61;97069.19;4201630;28;5916;-73
2023/08/19 08:50:35;;;;;;;;;;;;;;;28.80;40.68;97074.03;4201193;28;5698;-76
2023/08/19 08:52:39;;;;;;;;;;;;;;;28.80;40.82;97080.28;4201259;28;5685;-74
2023/08/19 08:54:46;;;;;;;;;;;;;;;28.79;40.70;97081.38;4201258;28;5685;-75
2023/08/19 08:56:49;;;;;;;;;;;;;;;28.79;40.94;97078.66;4201231;28;5784;-75
2023/08/19 08:58:52;;;;;;;;;;;;;;;28.78;40.84;97082.50;4201149;28;5075;-69
2023/08/19 09:00:55;;;;;;;;;;;;;;;28.80;40.81;97077.56;4200246;28;5701;-67
2023/08/19 09:03:00;;;;;;;;;;;;;;;28.83;40.64;97076.13;4198266;28;5793;-67
2023/08/19 09:05:06;;;;;;;;;;;;;;;28.84;40.66;97073.09;4200008;28;5697;-67
2023/08/19 09:07:16;;;;;;;;;;;;;;;28.87;40.78;97083.38;4191922;28;6641;-67
2023/08/19 09:09:22;;;;;;;;;;;;;;;28.90;40.91;97084.75;4199894;28;5674;-67
2023/08/19 09:11:27;;;;;;;;;;;;;;;28.90;40.61;97079.31;4199744;28;6382;-66
2023/08/19 09:13:32;;;;;;;;;;;;;;;28.92;40.60;97087.97;4200049;28;5798;-67
2023/08/19 09:15:35;;;;;;;;;;;;;;;28.92;40.75;97083.31;4199941;28;5776;-67
2023/08/19 09:17:39;;;;;;;;;;;;;;;28.94;40.76;97086.53;4200012;28;5698;-68
2023/08/19 09:19:42;;;;;;;;;;;;;;;28.93;40.66;97082.22;4199834;28;5927;-67
2023/08/19 09:21:45;;;;;;;;;;;;;;;28.93;40.72;97082.22;4198700;28;5535;-67
2023/08/19 09:23:49;;;;;;;;;;;;;;;28.93;40.28;97078.69;4199758;28;5698;-67
2023/08/19 09:25:52;;;;;;;;;;;;;;;28.94;40.01;97080.28;4197563;28;5678;-67
2023/08/19 09:27:55;;;;;;;;;;;;;;;28.94;40.05;97083.00;4201549;28;5681;-67
2023/08/19 09:29:58;;;;;;;;;;;;;;;28.94;40.07;97075.66;4200672;28;5954;-66
2023/08/19 09:32:02;;;;;;;;;;;;;;;28.97;40.29;97075.03;4201648;28;5693;-66
2023/08/19 09:34:05;;;;;;;;;;;;;;;28.98;40.08;97073.91;4202411;28;5831;-66
2023/08/19 09:36:08;;;;;;;;;;;;;;;29.02;40.01;97081.50;4202086;28;6753;-66
2023/08/19 09:38:19;;;;;;;;;;;;;;;29.01;40.10;97066.28;4200317;28;5681;-67
2023/08/19 09:40:24;;;;;;;;;;;;;;;29.03;40.20;97072.22;4201505;28;5705;-67
2023/08/19 09:42:26;;;;;;;;;;;;;;;29.03;40.15;97070.31;4200878;28;5871;-67
2023/08/19 09:44:29;;;;;;;;;;;;;;;29.05;40.14;97072.72;4199143;28;5850;-67
2023/08/19 09:46:33;;;;;;;;;;;;;;;29.04;40.19;97071.91;4202251;28;5909;-67
2023/08/19 09:48:38;;;;;;;;;;;;;;;29.04;40.25;97062.94;4202458;28;5933;-67
2023/08/19 09:50:46;;;;;;;;;;;;;;;29.06;39.88;97068.88;4201833;28;5748;-66
2023/08/19 09:52:55;;;;;;;;;;;;;;;29.06;39.94;97066.16;4202022;28;5697;-67
2023/08/19 09:54:58;;;;;;;;;;;;;;;29.09;39.84;97062.81;4202256;28;5708;-66
2023/08/19 09:57:02;;;;;;;;;;;;;;;29.10;39.84;97064.44;4202196;28;5709;-68
2023/08/19 09:59:06;;;;;;;;;;;;;;;29.11;40.12;97058.72;4202442;28;5908;-67
2023/08/19 10:01:09;;;;;;;;;;;;;;;29.12;39.78;97070.41;4194377;28;5770;-67
2023/08/19 10:03:12;;;;;;;;;;;;;;;29.13;39.57;97063.84;4202401;28;5678;-67
2023/08/19 10:05:17;;;;;;;;;;;;;;;29.14;39.56;97065.44;4201347;28;5698;-68
2023/08/19 10:07:23;;;;;;;;;;;;;;;29.16;39.33;97068.66;4202227;28;5700;-67
2023/08/19 10:09:27;;;;;;;;;;;;;;;29.17;39.00;97064.81;4200075;28;5674;-68
2023/08/19 10:11:31;;;;;;;;;;;;;;;29.17;38.55;97067.53;4201932;28;5825;-67
2023/08/19 10:13:38;;;;;;;;;;;;;;;29.17;38.43;97067.53;4202238;28;5094;-68
2023/08/19 10:15:42;;;;;;;;;;;;;;;29.17;38.00;97067.53;4202110;28;5809;-68
2023/08/19 10:17:54;;;;;;;;;;;;;;;29.19;37.78;97060.69;4202177;28;5697;-68
2023/08/19 10:20:05;;;;;;;;;;;;;;;29.21;37.65;97063.09;4202248;28;5772;-68
2023/08/19 10:22:10;;;;;;;;;;;;;;;29.22;37.38;97061.97;4202221;28;5696;-69
2023/08/19 10:24:14;;;;;;;;;;;;;;;29.24;37.25;97063.31;4194311;28;5725;-69
2023/08/19 10:26:18;;;;;;;;;;;;;;;29.26;36.91;97061.06;4201934;28;5710;-67
2023/08/19 10:28:26;;;;;;;;;;;;;;;29.27;37.09;97062.69;4201259;28;5860;-67
2023/08/19 10:30:31;;;;;;;;;;;;;;;29.27;36.34;97057.25;4196701;28;5963;-68
2023/08/19 10:32:35;;;;;;;;;;;;;;;29.27;36.12;97057.25;4199418;28;5780;-67
2023/08/19 10:34:46;;;;;;;;;;;;;;;29.30;36.25;97050.38;4198449;28;5679;-67
2023/08/19 10:37:06;;;;;;;;;;;;;;;29.33;36.18;97051.66;4199815;28;5725;-68
2023/08/19 10:39:15;;;;;;;;;;;;;;;29.36;35.94;97048.34;4201749;28;5817;-68
2023/08/19 10:41:27;;;;;;;;;;;;;;;29.39;35.40;97050.44;4201690;28;5709;-67
2023/08/19 10:44:03;;;;;;;;;;;;;;;29.40;35.28;97050.13;4202016;28;5781;-67
2023/08/19 10:46:06;;;;;;;;;;;;;;;29.41;35.44;97046.28;4201281;28;5895;-67
2023/08/19 10:48:09;;;;;;;;;;;;;;;29.42;35.42;97058.78;4201567;28;5704;-67
2023/08/19 10:50:12;;;;;;;;;;;;;;;29.45;35.06;97057.41;4201719;28;5905;-67
2023/08/19 10:52:20;;;;;;;;;;;;;;;29.45;35.17;97057.41;4201314;28;5795;-67
2023/08/19 10:54:35;;;;;;;;;;;;;;;29.49;34.92;97059.22;4199622;28;5868;-67
2023/08/19 10:56:42;;;;;;;;;;;;;;;29.50;34.95;97054.56;4200024;28;5721;-67